sensor_id;sensor_type;location;lat;lon;timestamp;temperature;humidity
30206;DHT22;17010;51.306;3.150;2023-08-01T09:32:14;22.70;99.90
30206;DHT22;17010;51.306;3.150;2023-08-01T09:35:07;22.00;99.90
30206;DHT22;17010;51.306;3.150;2023-08-01T09:42:18;21.30;99.90
30206;DHT22;17010;51.306;3.150;2023-08-01T09:54:21;23.10;99.90
30206;DHT22;17010;51.306;3.150;2023-08-01T09:56:56;23.40;99.90
30206;DHT22;17010;51.306;3.150;2023-08-01T09:59:44;23.60;99.90
30206;DHT22;17010;51.306;3.150;2023-08-01T10:03:12;23.80;99.90
30206;DHT22;17010;51.306;3.150;2023-08-01T10:06:07;23.60;99.90
30206;DHT22;17010;51.306;3.150;2023-08-01T10:08:35;23.30;99.90
30206;DHT22;17010;51.306;3.150;2023-08-01T10:11:17;23.30;99.90
30206;DHT22;17010;51.306;3.150;2023-08-01T10:13:49;23.40;99.90
30206;DHT22;17010;51.306;3.150;2023-08-01T10:16:17;23.80;99.90
30206;DHT22;17010;51.306;3.150;2023-08-01T10:18:47;23.60;99.90
30206;DHT22;17010;51.306;3.150;2023-08-01T10:21:19;23.50;99.90
30206;DHT22;17010;51.306;3.150;2023-08-01T10:23:57;23.80;99.90
30206;DHT22;17010;51.306;3.150;2023-08-01T10:26:24;23.40;99.90
30206;DHT22;17010;51.306;3.150;2023-08-01T10:28:52;23.70;99.90
30206;DHT22;17010;51.306;3.150;2023-08-01T10:31:25;24.20;99.90
30206;DHT22;17010;51.306;3.150;2023-08-01T10:34:16;24.70;99.90
30206;DHT22;17010;51.306;3.150;2023-08-01T10:36:53;24.70;99.90
30206;DHT22;17010;51.306;3.150;2023-08-01T10:39:24;25.10;99.90
30206;DHT22;17010;51.306;3.150;2023-08-01T10:42:16;25.10;99.90
30206;DHT22;17010;51.306;3.150;2023-08-01T10:44:46;25.60;99.90
30206;DHT22;17010;51.306;3.150;2023-08-01T10:47:12;25.20;99.90
30206;DHT22;17010;51.306;3.150;2023-08-01T10:49:43;24.80;99.90
30206;DHT22;17010;51.306;3.150;2023-08-01T10:52:22;24.70;99.90
30206;DHT22;17010;51.306;3.150;2023-08-01T10:55:00;25.00;99.90
30206;DHT22;17010;51.306;3.150;2023-08-01T10:57:31;25.00;99.90
30206;DHT22;17010;51.306;3.150;2023-08-01T10:59:58;24.60;99.90
30206;DHT22;17010;51.306;3.150;2023-08-01T11:02:26;25.10;99.90
30206;DHT22;17010;51.306;3.150;2023-08-01T11:05:01;25.60;99.90
30206;DHT22;17010;51.306;3.150;2023-08-01T11:07:27;25.80;99.90
30206;DHT22;17010;51.306;3.150;2023-08-01T11:10:12;25.90;99.90
30206;DHT22;17010;51.306;3.150;2023-08-01T11:12:42;25.50;99.90
30206;DHT22;17010;51.306;3.150;2023-08-01T11:15:10;25.20;99.90
30206;DHT22;17010;51.306;3.150;2023-08-01T11:17:41;25.20;99.90
30206;DHT22;17010;51.306;3.150;2023-08-01T11:20:10;24.70;99.90
30206;DHT22;17010;51.306;3.150;2023-08-01T11:22:38;24.60;99.90
30206;DHT22;17010;51.306;3.150;2023-08-01T11:25:15;25.00;99.90
30206;DHT22;17010;51.306;3.150;2023-08-01T11:27:41;25.40;99.90
30206;DHT22;17010;51.306;3.150;2023-08-01T11:30:10;26.20;99.90
30206;DHT22;17010;51.306;3.150;2023-08-01T11:32:38;26.70;99.90
30206;DHT22;17010;51.306;3.150;2023-08-01T11:35:04;26.40;99.90
30206;DHT22;17010;51.306;3.150;2023-08-01T11:37:31;25.80;99.90
30206;DHT22;17010;51.306;3.150;2023-08-01T11:39:58;25.30;99.90
30206;DHT22;17010;51.306;3.150;2023-08-01T11:42:24;24.90;99.90
30206;DHT22;17010;51.306;3.150;2023-08-01T11:44:50;24.30;99.90
30206;DHT22;17010;51.306;3.150;2023-08-01T11:47:17;24.10;99.90
30206;DHT22;17010;51.306;3.150;2023-08-01T11:49:48;24.30;99.90
30206;DHT22;17010;51.306;3.150;2023-08-01T11:52:25;24.30;99.90
30206;DHT22;17010;51.306;3.150;2023-08-01T11:54:52;24.90;99.90
30206;DHT22;17010;51.306;3.150;2023-08-01T11:57:18;25.80;99.90
30206;DHT22;17010;51.306;3.150;2023-08-01T11:59:53;26.20;99.90
30206;DHT22;17010;51.306;3.150;2023-08-01T12:02:25;26.80;99.90
30206;DHT22;17010;51.306;3.150;2023-08-01T12:04:52;26.30;99.90
30206;DHT22;17010;51.306;3.150;2023-08-01T12:07:19;26.70;99.90
30206;DHT22;17010;51.306;3.150;2023-08-01T12:09:58;26.70;99.90
30206;DHT22;17010;51.306;3.150;2023-08-01T12:12:29;26.50;99.90
30206;DHT22;17010;51.306;3.150;2023-08-01T12:14:55;26.40;99.90
30206;DHT22;17010;51.306;3.150;2023-08-01T12:17:22;26.50;99.90
30206;DHT22;17010;51.306;3.150;2023-08-01T12:19:48;26.10;99.90
30206;DHT22;17010;51.306;3.150;2023-08-01T12:22:14;25.80;99.90
30206;DHT22;17010;51.306;3.150;2023-08-01T12:24:41;25.50;99.90
30206;DHT22;17010;51.306;3.150;2023-08-01T12:27:08;25.90;99.90
30206;DHT22;17010;51.306;3.150;2023-08-01T12:29:35;26.20;99.90
30206;DHT22;17010;51.306;3.150;2023-08-01T12:32:04;26.60;99.90
30206;DHT22;17010;51.306;3.150;2023-08-01T12:34:34;26.70;99.90
30206;DHT22;17010;51.306;3.150;2023-08-01T12:37:00;26.80;99.90
30206;DHT22;17010;51.306;3.150;2023-08-01T12:39:26;27.10;99.90
30206;DHT22;17010;51.306;3.150;2023-08-01T12:41:53;27.10;99.90
30206;DHT22;17010;51.306;3.150;2023-08-01T12:44:20;26.50;99.90
30206;DHT22;17010;51.306;3.150;2023-08-01T12:46:47;26.80;99.90
30206;DHT22;17010;51.306;3.150;2023-08-01T12:49:13;26.70;99.90
30206;DHT22;17010;51.306;3.150;2023-08-01T12:51:39;26.10;99.90
30206;DHT22;17010;51.306;3.150;2023-08-01T12:54:05;25.40;99.90
30206;DHT22;17010;51.306;3.150;2023-08-01T12:56:34;24.80;99.90
30206;DHT22;17010;51.306;3.150;2023-08-01T12:59:00;24.30;99.90
30206;DHT22;17010;51.306;3.150;2023-08-01T13:01:26;23.70;99.90
30206;DHT22;17010;51.306;3.150;2023-08-01T13:03:53;23.40;99.90
30206;DHT22;17010;51.306;3.150;2023-08-01T13:06:19;23.30;99.90
30206;DHT22;17010;51.306;3.150;2023-08-01T13:08:46;23.40;99.90
30206;DHT22;17010;51.306;3.150;2023-08-01T13:11:17;23.40;99.90
30206;DHT22;17010;51.306;3.150;2023-08-01T13:13:44;23.20;99.90
30206;DHT22;17010;51.306;3.150;2023-08-01T13:16:11;23.20;99.90
30206;DHT22;17010;51.306;3.150;2023-08-01T13:18:43;23.20;99.90
30206;DHT22;17010;51.306;3.150;2023-08-01T13:21:13;23.30;99.90
30206;DHT22;17010;51.306;3.150;2023-08-01T13:23:40;23.30;99.90
30206;DHT22;17010;51.306;3.150;2023-08-01T13:26:09;23.00;99.90
30206;DHT22;17010;51.306;3.150;2023-08-01T13:28:36;22.70;99.90
30206;DHT22;17010;51.306;3.150;2023-08-01T13:31:03;22.40;99.90
30206;DHT22;17010;51.306;3.150;2023-08-01T13:33:32;22.30;99.90
30206;DHT22;17010;51.306;3.150;2023-08-01T13:36:04;22.30;99.90
30206;DHT22;17010;51.306;3.150;2023-08-01T13:38:41;22.40;99.90
30206;DHT22;17010;51.306;3.150;2023-08-01T13:41:08;22.70;99.90
30206;DHT22;17010;51.306;3.150;2023-08-01T13:43:40;22.90;99.90
30206;DHT22;17010;51.306;3.150;2023-08-01T13:46:25;22.80;99.90
30206;DHT22;17010;51.306;3.150;2023-08-01T13:48:56;22.50;99.90
30206;DHT22;17010;51.306;3.150;2023-08-01T13:51:30;22.30;99.90
30206;DHT22;17010;51.306;3.150;2023-08-01T13:56:40;21.80;99.90
30206;DHT22;17010;51.306;3.150;2023-08-01T13:59:09;21.60;99.90
30206;DHT22;17010;51.306;3.150;2023-08-01T14:01:39;21.40;99.90
30206;DHT22;17010;51.306;3.150;2023-08-01T14:04:06;21.30;99.90
30206;DHT22;17010;51.306;3.150;2023-08-01T14:06:56;21.20;99.90
30206;DHT22;17010;51.306;3.150;2023-08-01T14:19:43;21.10;99.90
30206;DHT22;17010;51.306;3.150;2023-08-01T14:22:51;21.10;99.90
30206;DHT22;17010;51.306;3.150;2023-08-01T14:26:21;21.10;99.90
30206;DHT22;17010;51.306;3.150;2023-08-01T14:28:58;21.30;99.90
30206;DHT22;17010;51.306;3.150;2023-08-01T14:31:48;21.40;99.90
30206;DHT22;17010;51.306;3.150;2023-08-01T14:34:45;21.50;99.90
30206;DHT22;17010;51.306;3.150;2023-08-01T14:37:31;21.40;99.90
30206;DHT22;17010;51.306;3.150;2023-08-01T14:40:34;21.40;99.90
30206;DHT22;17010;51.306;3.150;2023-08-01T14:43:22;21.60;99.90
30206;DHT22;17010;51.306;3.150;2023-08-01T14:46:26;21.50;99.90
30206;DHT22;17010;51.306;3.150;2023-08-01T14:49:44;21.50;99.90
30206;DHT22;17010;51.306;3.150;2023-08-01T15:01:39;21.80;99.90
30206;DHT22;17010;51.306;3.150;2023-08-01T15:04:15;22.00;99.90
30206;DHT22;17010;51.306;3.150;2023-08-01T15:07:10;22.00;99.90
30206;DHT22;17010;51.306;3.150;2023-08-01T15:10:15;21.80;99.90
30206;DHT22;17010;51.306;3.150;2023-08-01T15:13:05;21.30;99.90
30206;DHT22;17010;51.306;3.150;2023-08-01T15:16:14;21.10;99.90
30206;DHT22;17010;51.306;3.150;2023-08-01T15:19:26;21.10;99.90
30206;DHT22;17010;51.306;3.150;2023-08-01T15:22:50;21.10;99.90
30206;DHT22;17010;51.306;3.150;2023-08-01T15:25:26;21.10;99.90
30206;DHT22;17010;51.306;3.150;2023-08-01T15:28:35;21.20;99.90
30206;DHT22;17010;51.306;3.150;2023-08-01T15:31:26;21.20;99.90
30206;DHT22;17010;51.306;3.150;2023-08-01T15:34:26;21.20;99.90
30206;DHT22;17010;51.306;3.150;2023-08-01T15:37:12;21.10;99.90
30206;DHT22;17010;51.306;3.150;2023-08-01T15:46:49;21.40;99.90
30206;DHT22;17010;51.306;3.150;2023-08-01T15:49:59;21.30;99.90
30206;DHT22;17010;51.306;3.150;2023-08-01T15:58:11;21.30;99.90
30206;DHT22;17010;51.306;3.150;2023-08-01T16:01:06;21.30;99.90
30206;DHT22;17010;51.306;3.150;2023-08-01T16:04:11;21.40;99.90
30206;DHT22;17010;51.306;3.150;2023-08-01T16:12:39;21.50;99.90
30206;DHT22;17010;51.306;3.150;2023-08-01T18:01:21;20.10;99.90
30206;DHT22;17010;51.306;3.150;2023-08-01T18:17:06;20.10;99.90
30206;DHT22;17010;51.306;3.150;2023-08-01T18:20:09;20.10;99.90
30206;DHT22;17010;51.306;3.150;2023-08-01T18:39:21;19.90;99.90
30206;DHT22;17010;51.306;3.150;2023-08-01T18:42:31;19.90;99.90
30206;DHT22;17010;51.306;3.150;2023-08-01T18:45:40;19.80;99.90
30206;DHT22;17010;51.306;3.150;2023-08-01T18:52:13;19.70;99.90
30206;DHT22;17010;51.306;3.150;2023-08-01T19:05:32;19.70;99.90
30206;DHT22;17010;51.306;3.150;2023-08-01T19:08:59;19.60;99.90
30206;DHT22;17010;51.306;3.150;2023-08-01T19:12:25;19.60;99.90
30206;DHT22;17010;51.306;3.150;2023-08-01T19:15:48;19.50;99.90
30206;DHT22;17010;51.306;3.150;2023-08-01T19:28:56;19.20;99.90
30206;DHT22;17010;51.306;3.150;2023-08-01T19:35:26;19.20;99.90
30206;DHT22;17010;51.306;3.150;2023-08-01T19:38:24;19.10;99.90
30206;DHT22;17010;51.306;3.150;2023-08-01T19:40:51;19.00;99.90
30206;DHT22;17010;51.306;3.150;2023-08-01T19:43:19;19.00;99.90
30206;DHT22;17010;51.306;3.150;2023-08-01T19:45:46;18.90;99.90
30206;DHT22;17010;51.306;3.150;2023-08-01T19:48:13;18.90;99.90
30206;DHT22;17010;51.306;3.150;2023-08-01T19:50:39;18.80;99.90
30206;DHT22;17010;51.306;3.150;2023-08-01T19:53:07;18.70;99.90
30206;DHT22;17010;51.306;3.150;2023-08-01T19:55:34;18.70;99.90
30206;DHT22;17010;51.306;3.150;2023-08-01T19:58:00;18.70;99.90
30206;DHT22;17010;51.306;3.150;2023-08-01T20:00:27;18.70;99.90
30206;DHT22;17010;51.306;3.150;2023-08-01T20:02:54;18.60;99.90
30206;DHT22;17010;51.306;3.150;2023-08-01T20:05:23;18.60;99.90
30206;DHT22;17010;51.306;3.150;2023-08-01T20:07:55;18.60;99.90
30206;DHT22;17010;51.306;3.150;2023-08-01T20:10:22;18.50;99.90
30206;DHT22;17010;51.306;3.150;2023-08-01T20:12:48;18.50;99.90
30206;DHT22;17010;51.306;3.150;2023-08-01T20:15:31;18.40;99.90
30206;DHT22;17010;51.306;3.150;2023-08-01T20:18:00;18.50;99.90
30206;DHT22;17010;51.306;3.150;2023-08-01T20:20:30;18.30;99.90
30206;DHT22;17010;51.306;3.150;2023-08-01T20:23:00;18.30;99.90
30206;DHT22;17010;51.306;3.150;2023-08-01T20:25:31;18.30;99.90
30206;DHT22;17010;51.306;3.150;2023-08-01T20:27:57;18.20;99.90
30206;DHT22;17010;51.306;3.150;2023-08-01T20:30:26;18.20;99.90
30206;DHT22;17010;51.306;3.150;2023-08-01T20:32:54;18.10;99.90
30206;DHT22;17010;51.306;3.150;2023-08-01T20:35:35;18.10;99.90
30206;DHT22;17010;51.306;3.150;2023-08-01T20:38:03;18.00;99.90
30206;DHT22;17010;51.306;3.150;2023-08-01T20:40:34;18.00;99.90
30206;DHT22;17010;51.306;3.150;2023-08-01T20:43:04;17.90;99.90
30206;DHT22;17010;51.306;3.150;2023-08-01T20:45:30;17.90;99.90
30206;DHT22;17010;51.306;3.150;2023-08-01T20:47:56;18.00;99.90
30206;DHT22;17010;51.306;3.150;2023-08-01T20:50:23;17.90;99.90
30206;DHT22;17010;51.306;3.150;2023-08-01T20:52:49;17.90;99.90
30206;DHT22;17010;51.306;3.150;2023-08-01T20:55:16;17.80;99.90
30206;DHT22;17010;51.306;3.150;2023-08-01T20:57:42;17.80;99.90
30206;DHT22;17010;51.306;3.150;2023-08-01T21:00:09;17.80;99.90
30206;DHT22;17010;51.306;3.150;2023-08-01T21:02:35;17.80;99.90
30206;DHT22;17010;51.306;3.150;2023-08-01T21:05:01;17.70;99.90
30206;DHT22;17010;51.306;3.150;2023-08-01T21:07:28;17.80;99.90
30206;DHT22;17010;51.306;3.150;2023-08-01T21:09:56;17.80;99.90
30206;DHT22;17010;51.306;3.150;2023-08-01T21:12:22;17.80;99.90
30206;DHT22;17010;51.306;3.150;2023-08-01T21:14:52;17.80;99.90
30206;DHT22;17010;51.306;3.150;2023-08-01T21:17:18;17.80;99.90
30206;DHT22;17010;51.306;3.150;2023-08-01T21:19:46;17.80;99.90
30206;DHT22;17010;51.306;3.150;2023-08-01T21:22:14;17.70;99.90
30206;DHT22;17010;51.306;3.150;2023-08-01T21:24:40;17.70;99.90
30206;DHT22;17010;51.306;3.150;2023-08-01T21:27:06;17.70;99.90
30206;DHT22;17010;51.306;3.150;2023-08-01T21:29:33;17.70;99.90
30206;DHT22;17010;51.306;3.150;2023-08-01T21:31:59;17.70;99.90
30206;DHT22;17010;51.306;3.150;2023-08-01T21:34:25;17.60;99.90
30206;DHT22;17010;51.306;3.150;2023-08-01T21:36:52;17.60;99.90
30206;DHT22;17010;51.306;3.150;2023-08-01T21:39:18;17.60;99.90
30206;DHT22;17010;51.306;3.150;2023-08-01T21:41:44;17.70;99.90
30206;DHT22;17010;51.306;3.150;2023-08-01T21:44:12;17.60;99.90
30206;DHT22;17010;51.306;3.150;2023-08-01T21:46:38;17.60;99.90
30206;DHT22;17010;51.306;3.150;2023-08-01T21:49:04;17.60;99.90
30206;DHT22;17010;51.306;3.150;2023-08-01T21:51:30;17.60;99.90
30206;DHT22;17010;51.306;3.150;2023-08-01T21:53:57;17.60;99.90
30206;DHT22;17010;51.306;3.150;2023-08-01T21:56:23;17.60;99.90
30206;DHT22;17010;51.306;3.150;2023-08-01T21:58:49;17.60;99.90
30206;DHT22;17010;51.306;3.150;2023-08-01T22:01:15;17.60;99.90
30206;DHT22;17010;51.306;3.150;2023-08-01T22:03:42;17.60;99.90
30206;DHT22;17010;51.306;3.150;2023-08-01T22:06:08;17.60;99.90
30206;DHT22;17010;51.306;3.150;2023-08-01T22:08:34;17.60;99.90
30206;DHT22;17010;51.306;3.150;2023-08-01T22:11:00;17.50;99.90
30206;DHT22;17010;51.306;3.150;2023-08-01T22:13:28;17.50;99.90
30206;DHT22;17010;51.306;3.150;2023-08-01T22:15:54;17.50;99.90
30206;DHT22;17010;51.306;3.150;2023-08-01T22:18:21;17.50;99.90
30206;DHT22;17010;51.306;3.150;2023-08-01T22:20:53;17.50;99.90
30206;DHT22;17010;51.306;3.150;2023-08-01T22:23:20;17.50;99.90
30206;DHT22;17010;51.306;3.150;2023-08-01T22:25:49;17.50;99.90
30206;DHT22;17010;51.306;3.150;2023-08-01T22:28:19;17.50;99.90
30206;DHT22;17010;51.306;3.150;2023-08-01T22:30:47;17.50;99.90
30206;DHT22;17010;51.306;3.150;2023-08-01T22:33:14;17.50;99.90
30206;DHT22;17010;51.306;3.150;2023-08-01T22:35:40;17.50;99.90
30206;DHT22;17010;51.306;3.150;2023-08-01T22:38:08;17.50;99.90
30206;DHT22;17010;51.306;3.150;2023-08-01T22:40:34;17.50;99.90
30206;DHT22;17010;51.306;3.150;2023-08-01T22:43:00;17.50;99.90
30206;DHT22;17010;51.306;3.150;2023-08-01T22:45:27;17.40;99.90
30206;DHT22;17010;51.306;3.150;2023-08-01T22:47:53;17.40;99.90
30206;DHT22;17010;51.306;3.150;2023-08-01T22:50:19;17.40;99.90
30206;DHT22;17010;51.306;3.150;2023-08-01T22:52:46;17.40;99.90
30206;DHT22;17010;51.306;3.150;2023-08-01T22:55:21;17.40;99.90
30206;DHT22;17010;51.306;3.150;2023-08-01T22:57:47;17.40;99.90
30206;DHT22;17010;51.306;3.150;2023-08-01T23:00:13;17.30;99.90
30206;DHT22;17010;51.306;3.150;2023-08-01T23:02:40;17.30;99.90
30206;DHT22;17010;51.306;3.150;2023-08-01T23:05:12;17.30;99.90
30206;DHT22;17010;51.306;3.150;2023-08-01T23:07:38;17.30;99.90
30206;DHT22;17010;51.306;3.150;2023-08-01T23:10:07;17.30;99.90
30206;DHT22;17010;51.306;3.150;2023-08-01T23:12:33;17.20;99.90
30206;DHT22;17010;51.306;3.150;2023-08-01T23:15:00;17.20;99.90
30206;DHT22;17010;51.306;3.150;2023-08-01T23:17:34;17.20;99.90
30206;DHT22;17010;51.306;3.150;2023-08-01T23:20:00;17.10;99.90
30206;DHT22;17010;51.306;3.150;2023-08-01T23:22:27;17.10;99.90
30206;DHT22;17010;51.306;3.150;2023-08-01T23:24:53;17.10;99.90
30206;DHT22;17010;51.306;3.150;2023-08-01T23:27:19;17.10;99.90
30206;DHT22;17010;51.306;3.150;2023-08-01T23:29:46;17.00;99.90
30206;DHT22;17010;51.306;3.150;2023-08-01T23:32:12;17.00;99.90
30206;DHT22;17010;51.306;3.150;2023-08-01T23:34:38;17.00;99.90
30206;DHT22;17010;51.306;3.150;2023-08-01T23:37:06;17.00;99.90
30206;DHT22;17010;51.306;3.150;2023-08-01T23:39:33;17.00;99.90
30206;DHT22;17010;51.306;3.150;2023-08-01T23:41:59;17.00;99.90
30206;DHT22;17010;51.306;3.150;2023-08-01T23:44:26;17.00;99.90
30206;DHT22;17010;51.306;3.150;2023-08-01T23:46:58;17.00;99.90
30206;DHT22;17010;51.306;3.150;2023-08-01T23:49:24;17.00;99.90
30206;DHT22;17010;51.306;3.150;2023-08-01T23:51:51;17.00;99.90
30206;DHT22;17010;51.306;3.150;2023-08-01T23:54:18;17.00;99.90
30206;DHT22;17010;51.306;3.150;2023-08-01T23:56:44;17.10;99.90
30206;DHT22;17010;51.306;3.150;2023-08-01T23:59:11;17.10;99.90
